createdAt,value
2018-05-14T00:02:20.258Z,79.90
2018-05-14T00:04:47.831Z,80.40
2018-05-14T00:07:15.306Z,80.60
2018-05-14T00:09:42.867Z,80.50
2018-05-14T00:12:10.326Z,79.90
2018-05-14T00:14:37.798Z,79.80
2018-05-14T00:17:05.364Z,79.70
2018-05-14T00:19:32.839Z,79.70
2018-05-14T00:22:00.305Z,80.20
2018-05-14T00:24:27.757Z,79.80
2018-05-14T00:26:55.218Z,80.10
2018-05-14T00:29:22.684Z,80.10
2018-05-14T00:31:50.232Z,80.40
2018-05-14T00:34:17.697Z,80.00
2018-05-14T00:36:45.964Z,80.10
2018-05-14T00:39:13.434Z,80.50
2018-05-14T00:41:40.894Z,80.20
2018-05-14T00:44:08.370Z,80.10
2018-05-14T00:46:35.834Z,80.30
2018-05-14T00:49:03.282Z,80.50
2018-05-14T00:51:30.753Z,80.30
2018-05-14T00:53:58.225Z,80.60
2018-05-14T00:56:25.786Z,80.80
2018-05-14T00:58:53.254Z,80.20
2018-05-14T01:01:20.729Z,80.80
2018-05-14T01:03:48.276Z,81.50
2018-05-14T01:06:15.767Z,81.20
2018-05-14T01:08:43.301Z,81.00
2018-05-14T01:11:10.783Z,81.70
2018-05-14T01:13:38.258Z,82.00
2018-05-14T01:16:05.707Z,81.00
2018-05-14T01:18:33.182Z,81.00
2018-05-14T01:21:00.633Z,81.70
2018-05-14T01:23:28.106Z,81.50
2018-05-14T01:25:55.571Z,80.90
2018-05-14T01:28:23.013Z,81.10
2018-05-14T01:30:50.477Z,81.10
2018-05-14T01:33:17.930Z,81.70
2018-05-14T01:35:45.401Z,81.60
2018-05-14T01:38:12.883Z,82.40
2018-05-14T01:40:40.344Z,83.80
2018-05-14T01:43:07.894Z,83.00
2018-05-14T01:45:35.364Z,82.30
2018-05-14T01:48:02.811Z,82.70
2018-05-14T01:50:30.274Z,82.20
2018-05-14T01:52:57.723Z,82.90
2018-05-14T01:55:25.223Z,82.40
2018-05-14T01:57:52.673Z,82.50
2018-05-14T02:00:20.143Z,82.30
2018-05-14T02:02:47.699Z,82.50
2018-05-14T02:05:15.169Z,82.70
2018-05-14T02:07:42.610Z,82.10
2018-05-14T02:10:10.086Z,81.80
2018-05-14T02:12:37.545Z,82.10
2018-05-14T02:15:05.011Z,82.10
2018-05-14T02:17:32.462Z,82.80
2018-05-14T02:19:59.933Z,82.80
2018-05-14T02:22:27.383Z,82.20
2018-05-14T02:24:54.874Z,83.00
2018-05-14T02:27:22.430Z,82.50
2018-05-14T02:29:49.902Z,82.70
2018-05-14T02:32:17.382Z,82.40
2018-05-14T02:34:44.929Z,82.60
2018-05-14T02:37:12.494Z,82.60
2018-05-14T02:39:39.939Z,82.90
2018-05-14T02:42:07.407Z,82.30
2018-05-14T02:44:34.882Z,82.10
2018-05-14T02:47:02.342Z,82.20
2018-05-14T02:49:29.821Z,82.30
2018-05-14T02:51:57.376Z,83.30
2018-05-14T02:54:24.848Z,83.10
2018-05-14T02:56:52.323Z,82.70
2018-05-14T02:59:19.786Z,82.90
2018-05-14T03:01:47.331Z,82.50
2018-05-14T03:04:14.791Z,82.50
2018-05-14T03:06:42.244Z,82.60
2018-05-14T03:09:09.717Z,83.20
2018-05-14T03:11:37.159Z,83.00
2018-05-14T03:14:04.627Z,82.50
2018-05-14T03:16:32.106Z,82.50
2018-05-14T03:18:59.583Z,83.20
2018-05-14T03:21:27.051Z,82.20
2018-05-14T03:23:54.500Z,82.40
2018-05-14T03:26:21.977Z,82.90
2018-05-14T03:28:49.418Z,83.30
2018-05-14T03:31:16.892Z,83.30
2018-05-14T03:33:45.517Z,82.60
2018-05-14T03:36:14.452Z,83.00
2018-05-14T03:38:41.942Z,82.60
2018-05-14T03:41:09.400Z,82.30
2018-05-14T03:43:36.971Z,82.40
2018-05-14T03:46:04.527Z,82.50
2018-05-14T03:48:32.099Z,82.70
2018-05-14T03:50:59.575Z,82.60
2018-05-14T03:53:27.039Z,82.90
2018-05-14T03:55:55.514Z,82.90
2018-05-14T03:58:34.779Z,82.70
2018-05-14T04:04:28.193Z,82.90
2018-05-14T04:06:55.641Z,82.70
2018-05-14T04:09:23.102Z,82.70
2018-05-14T04:11:50.603Z,83.30
2018-05-14T04:14:18.070Z,82.90
2018-05-14T04:16:45.614Z,82.90
2018-05-14T04:19:13.094Z,83.30
2018-05-14T04:21:40.540Z,83.20
2018-05-14T04:24:08.118Z,83.10
2018-05-14T04:26:35.684Z,83.80
2018-05-14T04:29:03.126Z,83.60
2018-05-14T04:31:30.598Z,83.20
2018-05-14T04:33:58.053Z,83.10
2018-05-14T04:36:25.513Z,84.00
2018-05-14T04:38:52.996Z,83.90
2018-05-14T04:41:20.458Z,83.30
2018-05-14T04:43:48.022Z,83.60
2018-05-14T04:46:15.491Z,83.50
2018-05-14T04:48:42.950Z,83.50
2018-05-14T04:51:10.412Z,83.40
2018-05-14T04:53:37.857Z,82.90
2018-05-14T04:56:05.330Z,83.00
2018-05-14T04:58:32.784Z,83.50
2018-05-14T05:01:00.228Z,83.10
2018-05-14T05:03:27.684Z,82.80
2018-05-14T05:05:55.886Z,83.30
2018-05-14T05:08:23.371Z,83.30
2018-05-14T05:10:50.843Z,83.50
2018-05-14T05:13:18.401Z,83.30
2018-05-14T05:15:45.866Z,83.80
2018-05-14T05:18:13.334Z,84.20
2018-05-14T05:20:40.778Z,83.80
2018-05-14T05:23:08.258Z,83.60
2018-05-14T05:25:35.727Z,83.70
2018-05-14T05:28:03.282Z,83.70
2018-05-14T05:30:30.743Z,83.80
2018-05-14T05:32:58.220Z,83.10
2018-05-14T05:35:25.687Z,82.90
2018-05-14T05:37:53.179Z,83.00
2018-05-14T05:40:20.707Z,83.30
2018-05-14T05:42:48.147Z,82.90
2018-05-14T05:45:15.603Z,83.30
2018-05-14T05:47:43.064Z,83.20
2018-05-14T05:50:10.537Z,83.10
2018-05-14T05:52:37.987Z,83.00
2018-05-14T05:55:05.564Z,82.70
2018-05-14T05:57:33.007Z,82.90
2018-05-14T06:00:00.511Z,82.90
2018-05-14T06:02:28.078Z,82.70
2018-05-14T06:04:55.527Z,82.60
2018-05-14T06:07:23.105Z,82.80
2018-05-14T06:09:50.575Z,82.90
2018-05-14T06:12:18.042Z,82.60
2018-05-14T06:14:45.594Z,83.20
2018-05-14T06:17:13.066Z,83.40
2018-05-14T06:19:40.526Z,83.00
2018-05-14T06:22:07.973Z,83.30
2018-05-14T06:24:35.442Z,83.10
2018-05-14T06:27:02.919Z,82.90
2018-05-14T06:29:30.370Z,82.70
2018-05-14T06:31:57.938Z,82.70
2018-05-14T06:34:25.440Z,83.20
2018-05-14T06:36:52.864Z,82.70
2018-05-14T06:39:20.322Z,82.50
2018-05-14T06:41:47.779Z,82.90
2018-05-14T06:44:15.349Z,82.90
2018-05-14T06:46:42.725Z,82.60
2018-05-14T06:49:10.194Z,82.60
2018-05-14T06:51:37.746Z,82.70
2018-05-14T06:54:05.190Z,82.60
2018-05-14T06:56:32.684Z,82.20
2018-05-14T06:59:00.212Z,82.90
2018-05-14T07:01:27.679Z,82.60
2018-05-14T07:03:55.115Z,82.60
2018-05-14T07:06:23.340Z,82.60
2018-05-14T07:08:50.802Z,82.60
2018-05-14T07:11:18.255Z,82.60
2018-05-14T07:13:45.723Z,83.50
2018-05-14T07:16:13.170Z,82.80
2018-05-14T07:18:40.667Z,82.30
2018-05-14T07:21:08.231Z,82.40
2018-05-14T07:23:35.691Z,82.60
2018-05-14T07:26:03.176Z,82.60
2018-05-14T07:28:30.614Z,82.50
2018-05-14T07:30:58.182Z,82.10
2018-05-14T07:33:25.630Z,81.80
2018-05-14T07:35:53.107Z,82.20
2018-05-14T07:38:20.570Z,82.20
2018-05-14T07:40:48.068Z,81.80
2018-05-14T07:43:15.554Z,82.10
2018-05-14T07:45:43.789Z,81.50
2018-05-14T07:48:11.359Z,81.50
2018-05-14T07:50:38.910Z,81.80
2018-05-14T07:53:06.370Z,82.30
2018-05-14T07:55:33.841Z,82.30
2018-05-14T07:58:01.303Z,81.50
2018-05-14T08:00:28.850Z,81.50
2018-05-14T08:02:56.430Z,82.00
2018-05-14T08:05:24.001Z,81.90
2018-05-14T08:07:51.458Z,81.40
2018-05-14T08:10:18.927Z,81.50
2018-05-14T08:12:46.391Z,81.40
2018-05-14T08:15:13.850Z,81.50
2018-05-14T08:17:41.313Z,82.00
2018-05-14T08:20:08.796Z,81.90
2018-05-14T08:22:36.239Z,81.70
2018-05-14T08:25:03.705Z,81.40
2018-05-14T08:27:31.174Z,81.50
2018-05-14T08:29:58.633Z,81.40
2018-05-14T08:32:26.095Z,81.30
2018-05-14T08:34:53.540Z,81.70
2018-05-14T08:37:21.017Z,81.50
2018-05-14T08:39:48.467Z,81.80
2018-05-14T08:42:15.942Z,82.00
2018-05-14T08:44:43.519Z,81.90
2018-05-14T08:47:10.978Z,81.40
2018-05-14T08:49:38.438Z,81.50
2018-05-14T08:52:06.006Z,81.70
2018-05-14T08:54:34.355Z,81.60
2018-05-14T08:57:01.749Z,81.50
2018-05-14T08:59:29.182Z,81.50
2018-05-14T09:01:56.682Z,81.60
2018-05-14T09:04:24.239Z,81.70
2018-05-14T09:06:51.806Z,82.40
2018-05-14T09:09:19.266Z,81.40
2018-05-14T09:11:46.743Z,81.60
2018-05-14T09:14:14.183Z,81.50
2018-05-14T09:16:42.011Z,81.40
2018-05-14T09:19:10.264Z,81.20
2018-05-14T09:21:37.714Z,81.20
2018-05-14T09:24:05.166Z,81.30
2018-05-14T09:26:32.634Z,81.50
2018-05-14T09:29:00.083Z,81.60
2018-05-14T09:31:27.550Z,81.20
2018-05-14T09:33:55.006Z,81.10
2018-05-14T09:36:22.467Z,81.10
2018-05-14T09:38:49.966Z,81.70
2018-05-14T09:41:17.415Z,81.50
2018-05-14T09:43:44.871Z,81.80
2018-05-14T09:46:12.351Z,81.60
2018-05-14T09:48:39.796Z,81.90
2018-05-14T09:51:07.243Z,81.50
2018-05-14T09:53:34.726Z,81.50
2018-05-14T09:56:02.199Z,81.70
2018-05-14T09:58:29.643Z,81.70
2018-05-14T10:00:57.138Z,81.60
2018-05-14T10:03:24.735Z,81.70
2018-05-14T10:05:52.163Z,82.00
2018-05-14T10:08:19.713Z,81.90
2018-05-14T10:10:47.180Z,82.10
2018-05-14T10:13:14.742Z,81.90
2018-05-14T10:15:42.335Z,82.30
2018-05-14T10:18:09.803Z,82.00
2018-05-14T10:20:37.343Z,83.00
2018-05-14T10:23:04.921Z,82.10
2018-05-14T10:25:32.471Z,81.90
2018-05-14T10:28:00.035Z,81.80
2018-05-14T10:30:27.515Z,81.60
2018-05-14T10:32:54.990Z,81.60
2018-05-14T10:35:22.533Z,81.60
2018-05-14T10:37:49.984Z,81.60
2018-05-14T10:40:17.454Z,81.50
2018-05-14T10:42:44.921Z,81.60
2018-05-14T10:45:12.391Z,82.10
2018-05-14T10:47:39.943Z,82.20
2018-05-14T10:50:07.420Z,81.80
2018-05-14T10:52:34.987Z,81.80
2018-05-14T10:55:02.654Z,81.90
2018-05-14T10:57:30.108Z,81.70
2018-05-14T10:59:57.571Z,81.60
2018-05-14T11:02:25.058Z,81.80
2018-05-14T11:04:54.010Z,81.70
2018-05-14T11:07:21.495Z,81.70
2018-05-14T11:09:49.060Z,81.90
2018-05-14T11:12:16.522Z,81.70
2018-05-14T11:14:44.040Z,81.50
2018-05-14T11:17:12.262Z,82.00
2018-05-14T11:19:39.726Z,81.90
2018-05-14T11:22:07.190Z,81.80
2018-05-14T11:24:34.741Z,81.80
2018-05-14T11:27:02.133Z,81.50
2018-05-14T11:29:29.606Z,81.30
2018-05-14T11:31:57.089Z,81.50
2018-05-14T11:34:25.303Z,81.70
2018-05-14T11:36:52.760Z,81.60
2018-05-14T11:39:20.227Z,81.80
2018-05-14T11:41:47.687Z,81.80
2018-05-14T11:44:15.159Z,81.60
2018-05-14T11:46:42.656Z,81.70
2018-05-14T11:49:10.207Z,82.30
2018-05-14T11:51:37.772Z,82.10
2018-05-14T11:54:05.346Z,82.20
2018-05-14T11:56:32.823Z,82.20
2018-05-14T11:59:00.376Z,82.80
2018-05-14T12:01:27.837Z,82.50
2018-05-14T12:03:55.527Z,82.70
2018-05-14T12:06:23.004Z,82.10
2018-05-14T12:08:50.474Z,82.60
2018-05-14T12:11:18.703Z,82.30
2018-05-14T12:13:46.150Z,82.10
2018-05-14T12:16:14.030Z,81.60
2018-05-14T12:18:41.415Z,82.00
2018-05-14T12:21:08.897Z,82.30
2018-05-14T12:23:37.430Z,82.00
2018-05-14T12:26:04.903Z,81.90
2018-05-14T12:28:32.355Z,81.80
2018-05-14T12:31:00.063Z,81.90
2018-05-14T12:33:27.614Z,82.00
2018-05-14T12:35:55.075Z,82.20
2018-05-14T12:38:22.554Z,81.80
2018-05-14T12:40:50.096Z,81.60
2018-05-14T12:43:17.470Z,81.90
2018-05-14T12:45:45.034Z,81.80
2018-05-14T12:48:12.486Z,81.50
2018-05-14T12:50:39.954Z,81.20
2018-05-14T12:53:07.414Z,81.90
2018-05-14T12:55:34.889Z,81.60
2018-05-14T12:58:02.350Z,81.70
2018-05-14T13:00:29.823Z,81.90
2018-05-14T13:02:57.286Z,81.70
2018-05-14T13:05:24.761Z,81.70
2018-05-14T13:07:52.234Z,81.70
2018-05-14T13:10:19.702Z,81.50
2018-05-14T13:12:47.923Z,82.40
2018-05-14T13:15:15.420Z,82.00
2018-05-14T13:17:42.866Z,82.10
2018-05-14T13:20:10.442Z,81.90
2018-05-14T13:22:37.890Z,82.00
2018-05-14T13:25:05.374Z,82.00
2018-05-14T13:27:32.831Z,82.80
2018-05-14T13:30:00.395Z,81.80
2018-05-14T13:32:27.867Z,82.10
2018-05-14T13:34:55.333Z,82.10
2018-05-14T13:37:22.826Z,82.60
2018-05-14T13:39:51.067Z,82.10
2018-05-14T13:42:18.523Z,82.10
2018-05-14T13:44:45.984Z,81.90
2018-05-14T13:47:13.562Z,81.70
2018-05-14T13:49:41.014Z,81.90
2018-05-14T13:52:08.491Z,81.60
2018-05-14T13:54:36.054Z,81.30
2018-05-14T13:57:03.547Z,82.00
2018-05-14T13:59:31.091Z,81.50
2018-05-14T14:01:58.543Z,81.50
2018-05-14T14:04:26.108Z,81.10
2018-05-14T14:06:53.573Z,81.00
2018-05-14T14:09:21.034Z,80.40
2018-05-14T14:11:48.508Z,80.50
2018-05-14T14:14:16.062Z,80.40
2018-05-14T14:16:43.550Z,80.60
2018-05-14T14:19:11.090Z,81.00
2018-05-14T14:21:38.555Z,81.20
2018-05-14T14:24:06.128Z,81.50
2018-05-14T14:26:33.502Z,81.40
2018-05-14T14:29:00.970Z,82.00
2018-05-14T14:31:28.515Z,82.20
2018-05-14T14:33:55.984Z,82.10
2018-05-14T14:36:23.656Z,82.30
2018-05-14T14:38:51.923Z,82.80
2018-05-14T14:41:19.503Z,82.70
2018-05-14T14:43:46.946Z,83.00
2018-05-14T14:46:14.437Z,82.60
2018-05-14T14:48:41.982Z,83.20
2018-05-14T14:51:09.458Z,83.20
2018-05-14T14:53:36.952Z,82.60
2018-05-14T14:56:05.181Z,83.40
2018-05-14T14:58:32.666Z,83.30
2018-05-14T15:01:00.220Z,83.10
2018-05-14T15:03:27.666Z,83.30
2018-05-14T15:05:55.203Z,83.00
2018-05-14T15:08:23.460Z,82.60
2018-05-14T15:10:50.937Z,82.60
2018-05-14T15:13:19.145Z,83.00
2018-05-14T15:15:46.627Z,83.00
2018-05-14T15:18:14.094Z,82.90
2018-05-14T15:20:41.572Z,83.20
2018-05-14T15:23:09.126Z,83.40
2018-05-14T15:25:36.595Z,83.20
2018-05-14T15:28:04.167Z,83.60
2018-05-14T15:30:31.619Z,83.40
2018-05-14T15:32:59.097Z,83.50
2018-05-14T15:35:26.547Z,83.40
2018-05-14T15:37:54.048Z,83.50
2018-05-14T15:40:22.388Z,84.60
2018-05-14T15:42:49.864Z,83.50
2018-05-14T15:45:17.418Z,83.50
2018-05-14T15:47:44.876Z,83.70
2018-05-14T15:50:12.454Z,83.90
2018-05-14T15:52:40.015Z,84.00
2018-05-14T15:55:07.485Z,84.00
2018-05-14T15:57:34.962Z,84.10
2018-05-14T16:00:02.427Z,84.30
2018-05-14T16:02:29.990Z,84.50
2018-05-14T16:04:57.440Z,84.50
2018-05-14T16:07:24.971Z,84.60
2018-05-14T16:09:52.434Z,84.80
2018-05-14T16:12:19.929Z,84.80
2018-05-14T16:14:47.379Z,84.50
2018-05-14T16:17:14.859Z,84.70
2018-05-14T16:19:42.330Z,84.30
2018-05-14T16:22:09.802Z,84.60
2018-05-14T16:24:37.280Z,84.70
2018-05-14T16:27:05.523Z,84.50
2018-05-14T16:29:32.994Z,84.50
2018-05-14T16:32:00.469Z,85.00
2018-05-14T16:34:27.922Z,84.70
2018-05-14T16:36:55.394Z,84.80
2018-05-14T16:39:22.882Z,85.00
2018-05-14T16:41:51.201Z,85.70
2018-05-14T16:44:18.690Z,85.60
2018-05-14T16:46:46.158Z,85.30
2018-05-14T16:49:13.611Z,85.50
2018-05-14T16:51:41.099Z,85.20
2018-05-14T16:54:10.051Z,85.30
2018-05-14T16:56:37.526Z,85.30
2018-05-14T16:59:05.000Z,85.50
2018-05-14T17:01:32.474Z,85.70
2018-05-14T17:03:59.927Z,85.50
2018-05-14T17:06:27.387Z,85.90
2018-05-14T17:08:54.880Z,86.00
2018-05-14T17:11:22.322Z,85.50
2018-05-14T17:13:49.779Z,85.80
2018-05-14T17:16:17.266Z,85.50
2018-05-14T17:18:44.810Z,85.90
2018-05-14T17:21:12.266Z,86.00
2018-05-14T17:23:39.738Z,85.70
2018-05-14T17:26:07.194Z,86.00
2018-05-14T17:28:34.762Z,86.80
2018-05-14T17:31:02.230Z,86.50
2018-05-14T17:33:29.748Z,86.30
2018-05-14T17:35:57.977Z,86.10
2018-05-14T17:38:25.886Z,86.00
2018-05-14T17:40:54.121Z,86.00
2018-05-14T17:43:21.584Z,86.00
2018-05-14T17:45:49.041Z,86.10
2018-05-14T17:48:16.602Z,86.30
2018-05-14T17:50:44.093Z,86.80
2018-05-14T17:53:11.563Z,86.70
2018-05-14T17:55:39.032Z,86.50
2018-05-14T17:58:06.586Z,86.40
2018-05-14T18:00:34.065Z,86.10
2018-05-14T18:03:01.530Z,86.40
2018-05-14T18:05:29.070Z,86.20
2018-05-14T18:07:56.550Z,86.30
2018-05-14T18:10:24.158Z,86.20
2018-05-14T18:12:51.585Z,86.10
2018-05-14T18:15:19.037Z,86.20
2018-05-14T18:17:46.578Z,86.00
2018-05-14T18:20:20.574Z,86.00
2018-05-14T18:22:48.072Z,85.90
2018-05-14T18:25:21.133Z,85.90
2018-05-14T18:27:54.204Z,85.90
2018-05-14T18:30:28.334Z,85.70
2018-05-14T18:33:01.423Z,85.90
2018-05-14T18:35:34.519Z,85.70
2018-05-14T18:38:02.002Z,85.60
2018-05-14T18:40:29.471Z,85.70
2018-05-14T18:42:56.931Z,85.60
2018-05-14T18:45:24.508Z,85.60
2018-05-14T18:47:51.990Z,85.40
2018-05-14T18:50:19.466Z,85.60
2018-05-14T18:52:47.716Z,85.50
2018-05-14T18:55:15.162Z,85.40
2018-05-14T18:57:42.643Z,85.50
2018-05-14T19:00:10.098Z,85.50
2018-05-14T19:02:37.575Z,85.40
2018-05-14T19:05:05.123Z,85.40
2018-05-14T19:07:32.598Z,85.50
2018-05-14T19:10:00.082Z,85.50
2018-05-14T19:12:27.633Z,85.50
2018-05-14T19:15:00.605Z,85.20
2018-05-14T19:17:33.851Z,85.10
2018-05-14T19:20:02.564Z,85.40
2018-05-14T19:22:35.883Z,85.30
2018-05-14T19:25:03.379Z,85.60
2018-05-14T19:27:30.914Z,85.50
2018-05-14T19:29:58.360Z,86.00
2018-05-14T19:32:25.838Z,86.00
2018-05-14T19:34:59.110Z,85.70
2018-05-14T19:37:26.602Z,85.60
2018-05-14T19:39:59.665Z,85.70
2018-05-14T19:42:27.132Z,85.60
2018-05-14T19:44:54.592Z,86.10
2018-05-14T19:47:22.029Z,86.50
2018-05-14T19:49:50.367Z,87.10
2018-05-14T19:52:17.755Z,87.00
2018-05-14T19:54:45.290Z,87.00
2018-05-14T19:57:12.749Z,86.90
2018-05-14T19:59:40.219Z,87.30
2018-05-14T20:02:07.678Z,87.70
2018-05-14T20:04:35.121Z,87.80
2018-05-14T20:07:02.609Z,87.20
2018-05-14T20:09:30.067Z,87.30
2018-05-14T20:11:57.558Z,87.80
2018-05-14T20:14:25.001Z,87.40
2018-05-14T20:16:52.465Z,87.40
2018-05-14T20:19:19.930Z,87.30
2018-05-14T20:21:47.376Z,87.30
2018-05-14T20:24:14.842Z,87.50
2018-05-14T20:26:42.285Z,88.00
2018-05-14T20:29:09.750Z,87.80
2018-05-14T20:31:37.213Z,87.30
2018-05-14T20:34:04.981Z,88.20
2018-05-14T20:36:32.485Z,87.50
2018-05-14T20:39:00.029Z,87.30
2018-05-14T20:41:27.501Z,87.20
2018-05-14T20:43:54.974Z,87.00
2018-05-14T20:46:22.524Z,87.30
2018-05-14T20:48:49.969Z,87.30
2018-05-14T20:51:17.439Z,87.30
2018-05-14T20:53:44.903Z,87.50
2018-05-14T20:56:12.379Z,87.30
2018-05-14T20:58:39.823Z,87.40
2018-05-14T21:01:07.315Z,87.50
2018-05-14T21:03:34.757Z,87.90
2018-05-14T21:06:02.320Z,87.60
2018-05-14T21:08:29.673Z,87.40
2018-05-14T21:10:57.137Z,87.50
2018-05-14T21:13:24.626Z,87.70
2018-05-14T21:15:52.189Z,87.50
2018-05-14T21:18:19.653Z,87.50
2018-05-14T21:20:47.127Z,87.30
2018-05-14T21:23:14.679Z,87.20
2018-05-14T21:25:42.142Z,87.10
2018-05-14T21:28:09.609Z,87.30
2018-05-14T21:30:37.075Z,87.60
2018-05-14T21:33:04.529Z,88.00
2018-05-14T21:35:32.092Z,87.70
2018-05-14T21:37:59.566Z,87.70
2018-05-14T21:40:27.035Z,87.90
2018-05-14T21:42:54.510Z,88.10
2018-05-14T21:45:22.050Z,88.80
2018-05-14T21:47:49.508Z,89.00
2018-05-14T21:50:17.043Z,89.00
2018-05-14T21:52:44.453Z,89.20
2018-05-14T21:55:11.903Z,89.30
2018-05-14T21:57:39.469Z,89.10
2018-05-14T22:00:06.922Z,88.80
2018-05-14T22:02:34.377Z,88.60
2018-05-14T22:05:01.837Z,88.50
2018-05-14T22:07:29.282Z,88.60
2018-05-14T22:09:56.745Z,88.50
2018-05-14T22:12:24.196Z,88.40
2018-05-14T22:14:52.426Z,88.30
2018-05-14T22:17:19.910Z,88.30
2018-05-14T22:19:47.365Z,88.10
2018-05-14T22:22:14.817Z,88.10
2018-05-14T22:24:42.276Z,87.80
2018-05-14T22:27:09.745Z,87.50
2018-05-14T22:29:37.192Z,87.40
2018-05-14T22:32:04.682Z,87.40
2018-05-14T22:34:32.138Z,87.40
2018-05-14T22:36:59.605Z,87.30
2018-05-14T22:39:27.053Z,87.40
2018-05-14T22:41:54.519Z,87.20
2018-05-14T22:44:22.080Z,87.20
2018-05-14T22:46:49.554Z,87.10
2018-05-14T22:49:17.019Z,86.90
2018-05-14T22:51:44.481Z,86.80
2018-05-14T22:54:11.930Z,86.80
2018-05-14T22:56:39.410Z,86.60
2018-05-14T22:59:06.869Z,86.60
2018-05-14T23:01:34.332Z,86.70
2018-05-14T23:04:01.821Z,86.70
2018-05-14T23:06:29.358Z,86.60
2018-05-14T23:08:56.821Z,86.70
2018-05-14T23:11:24.285Z,86.80
2018-05-14T23:13:51.849Z,87.00
2018-05-14T23:16:19.291Z,87.00
2018-05-14T23:18:46.757Z,87.10
2018-05-14T23:21:14.699Z,86.80
2018-05-14T23:23:42.602Z,86.80
2018-05-14T23:26:10.095Z,86.90
2018-05-14T23:28:37.560Z,86.90
2018-05-14T23:31:05.014Z,86.60
2018-05-14T23:33:32.494Z,86.80
2018-05-14T23:35:59.968Z,86.90
2018-05-14T23:38:27.431Z,86.90
2018-05-14T23:40:54.876Z,86.80
2018-05-14T23:43:22.433Z,86.60
2018-05-14T23:45:50.047Z,86.80
2018-05-14T23:48:17.508Z,87.30
2018-05-14T23:50:44.918Z,87.20
2018-05-14T23:53:12.495Z,87.30
2018-05-14T23:55:39.937Z,87.40
2018-05-14T23:58:07.397Z,87.30
